Time;durP1;ratioP1;P1;durP2;ratioP2;P2;SDS_P1;SDS_P2;PMS_P1;PMS_P2;Temp;Humidity;BMP_temperature;BMP_pressure;BME280_temperature;BME280_humidity;BME280_pressure;Samples;Min_cycle;Max_cycle;Signal;HPM_P1;HPM_P2
2024/03/28 00:02:30;;;;;;;9.48;2.95;;;;;;;;;;5036401;28;20029;-68
2024/03/28 00:04:57;;;;;;;6.18;3.70;;;;;;;;;;5049670;28;20053;-69
2024/03/28 00:07:23;;;;;;;8.88;4.32;;;;;;;;;;5044059;28;20088;-68
2024/03/28 00:09:49;;;;;;;5.82;5.25;;;;;;;;;;5042891;28;20309;-69
2024/03/28 00:12:15;;;;;;;4.97;3.60;;;;;;;;;;5043836;28;20512;-68
2024/03/28 00:14:42;;;;;;;8.93;4.38;;;;;;;;;;5041374;28;20030;-69
2024/03/28 00:17:08;;;;;;;3.67;3.08;;;;;;;;;;5043536;28;20075;-69
2024/03/28 00:19:34;;;;;;;7.93;4.45;;;;;;;;;;5046030;28;20029;-69
2024/03/28 00:22:00;;;;;;;4.40;3.08;;;;;;;;;;5046601;28;20768;-69
2024/03/28 00:24:27;;;;;;;3.22;2.78;;;;;;;;;;5038898;28;20120;-69
2024/03/28 00:26:53;;;;;;;5.00;3.10;;;;;;;;;;5034715;28;20021;-69
2024/03/28 00:29:19;;;;;;;4.85;3.10;;;;;;;;;;5048054;28;20086;-69
2024/03/28 00:31:45;;;;;;;3.30;2.50;;;;;;;;;;5042714;28;20389;-68
2024/03/28 00:34:12;;;;;;;2.45;2.03;;;;;;;;;;5038177;28;20037;-68
2024/03/28 00:36:38;;;;;;;4.65;2.65;;;;;;;;;;5036231;28;20116;-69
2024/03/28 00:39:05;;;;;;;5.18;2.78;;;;;;;;;;5037795;28;20136;-69
2024/03/28 00:41:31;;;;;;;3.78;2.53;;;;;;;;;;5036485;28;20031;-69
2024/03/28 00:43:57;;;;;;;5.97;3.22;;;;;;;;;;5043481;28;20029;-68
2024/03/28 00:46:23;;;;;;;6.93;3.80;;;;;;;;;;5043199;28;20456;-69
2024/03/28 00:48:49;;;;;;;3.33;2.08;;;;;;;;;;5044220;28;21050;-68
2024/03/28 00:51:16;;;;;;;1.65;1.55;;;;;;;;;;5036815;28;20029;-68
2024/03/28 00:53:43;;;;;;;6.95;2.20;;;;;;;;;;5055732;28;20147;-69
2024/03/28 00:56:09;;;;;;;3.08;2.28;;;;;;;;;;5046698;28;20386;-68
2024/03/28 00:58:35;;;;;;;4.90;2.50;;;;;;;;;;5040460;28;20078;-68
2024/03/28 01:01:03;;;;;;;2.55;2.30;;;;;;;;;;5043643;28;20029;-68
2024/03/28 01:03:29;;;;;;;2.00;1.90;;;;;;;;;;5041166;28;20048;-69
2024/03/28 01:05:59;;;;;;;5.18;2.03;;;;;;;;;;5042293;28;20512;-69
2024/03/28 01:08:25;;;;;;;2.13;1.60;;;;;;;;;;5041738;28;20017;-69
2024/03/28 01:10:51;;;;;;;1.88;1.77;;;;;;;;;;5044933;28;20029;-69
2024/03/28 01:13:17;;;;;;;6.63;2.30;;;;;;;;;;5041120;28;20025;-68
2024/03/28 01:15:43;;;;;;;10.40;3.88;;;;;;;;;;5041038;28;20118;-68
2024/03/28 01:18:10;;;;;;;6.60;2.30;;;;;;;;;;5040443;28;20017;-68
2024/03/28 01:20:36;;;;;;;3.53;2.55;;;;;;;;;;5040319;28;20027;-68
2024/03/28 01:23:03;;;;;;;2.05;1.48;;;;;;;;;;5044373;28;20029;-68
2024/03/28 01:25:29;;;;;;;2.55;2.35;;;;;;;;;;5044815;28;20489;-69
2024/03/28 01:27:56;;;;;;;3.35;2.22;;;;;;;;;;5039352;28;20025;-69
2024/03/28 01:30:23;;;;;;;2.47;1.73;;;;;;;;;;5038862;28;20032;-69
2024/03/28 01:32:49;;;;;;;3.63;2.15;;;;;;;;;;5044227;28;20521;-69
2024/03/28 01:35:15;;;;;;;5.10;3.38;;;;;;;;;;5045105;28;20047;-69
2024/03/28 01:37:42;;;;;;;7.97;3.35;;;;;;;;;;5041825;28;20057;-69
2024/03/28 01:40:09;;;;;;;3.22;2.90;;;;;;;;;;5044816;28;20705;-69
2024/03/28 01:42:35;;;;;;;4.22;2.20;;;;;;;;;;5039422;28;20500;-69
2024/03/28 01:45:01;;;;;;;3.75;1.42;;;;;;;;;;5044417;28;20056;-69
2024/03/28 01:47:28;;;;;;;2.95;2.03;;;;;;;;;;5038315;28;20048;-68
2024/03/28 01:49:54;;;;;;;1.45;1.42;;;;;;;;;;5037126;28;20040;-68
2024/03/28 01:52:20;;;;;;;1.35;1.35;;;;;;;;;;5056551;28;20025;-67
2024/03/28 01:54:47;;;;;;;3.25;2.17;;;;;;;;;;5044969;28;21370;-67
2024/03/28 01:57:14;;;;;;;7.50;1.83;;;;;;;;;;5034612;28;20037;-67
2024/03/28 01:59:40;;;;;;;2.65;1.88;;;;;;;;;;5035910;28;20035;-67
2024/03/28 02:02:07;;;;;;;1.70;1.35;;;;;;;;;;5037631;28;20032;-66
2024/03/28 02:04:34;;;;;;;2.03;1.92;;;;;;;;;;5044940;28;20029;-67
2024/03/28 02:07:00;;;;;;;2.08;1.88;;;;;;;;;;5040466;28;20492;-67
2024/03/28 02:09:27;;;;;;;3.40;1.73;;;;;;;;;;5039570;28;20029;-67
2024/03/28 02:11:53;;;;;;;6.32;1.73;;;;;;;;;;5042160;28;20138;-67
2024/03/28 02:14:20;;;;;;;3.90;2.00;;;;;;;;;;5036524;28;20404;-67
2024/03/28 02:16:46;;;;;;;1.52;1.50;;;;;;;;;;5038295;28;20076;-68
2024/03/28 02:19:12;;;;;;;1.20;1.20;;;;;;;;;;5046494;28;20029;-67
2024/03/28 02:21:38;;;;;;;1.75;1.50;;;;;;;;;;5038440;28;20086;-68
2024/03/28 02:24:04;;;;;;;2.17;2.08;;;;;;;;;;5039132;28;20025;-68
2024/03/28 02:26:30;;;;;;;1.25;1.25;;;;;;;;;;5041650;28;20071;-68
2024/03/28 02:28:57;;;;;;;1.90;1.80;;;;;;;;;;5034253;28;20082;-67
2024/03/28 02:31:23;;;;;;;1.23;1.23;;;;;;;;;;5039254;28;20032;-68
2024/03/28 02:33:49;;;;;;;1.30;1.20;;;;;;;;;;5036994;28;20476;-68
2024/03/28 02:36:15;;;;;;;1.10;1.10;;;;;;;;;;5033078;28;20430;-68
2024/03/28 02:38:42;;;;;;;2.75;1.90;;;;;;;;;;5037479;28;20061;-68
2024/03/28 02:41:08;;;;;;;2.45;1.23;;;;;;;;;;5039718;28;20041;-68
2024/03/28 02:43:34;;;;;;;1.38;1.38;;;;;;;;;;5039945;28;20033;-67
2024/03/28 02:46:01;;;;;;;1.60;1.55;;;;;;;;;;5036919;28;20025;-64
2024/03/28 02:48:27;;;;;;;1.40;1.40;;;;;;;;;;5043795;28;20063;-64
2024/03/28 02:50:54;;;;;;;1.48;1.30;;;;;;;;;;5039261;28;20492;-64
2024/03/28 02:53:20;;;;;;;2.50;1.27;;;;;;;;;;5044642;28;20056;-64
2024/03/28 02:55:52;;;;;;;1.30;1.30;;;;;;;;;;5035103;28;20120;-64
2024/03/28 02:58:18;;;;;;;1.95;1.85;;;;;;;;;;5038919;28;20033;-64
2024/03/28 03:00:44;;;;;;;2.25;2.15;;;;;;;;;;5041115;28;20040;-64
2024/03/28 03:03:10;;;;;;;1.45;1.20;;;;;;;;;;5043962;28;20025;-64
2024/03/28 03:05:38;;;;;;;1.30;1.30;;;;;;;;;;5040130;28;20040;-64
2024/03/28 03:08:04;;;;;;;7.00;2.30;;;;;;;;;;5040338;28;20037;-64
2024/03/28 03:10:31;;;;;;;2.67;1.50;;;;;;;;;;5040340;28;20021;-64
2024/03/28 03:13:00;;;;;;;1.45;1.45;;;;;;;;;;5029487;28;20021;-64
2024/03/28 03:15:26;;;;;;;4.10;1.45;;;;;;;;;;5034710;28;20045;-64
2024/03/28 03:17:52;;;;;;;1.92;1.60;;;;;;;;;;5036750;28;20036;-64
2024/03/28 03:20:19;;;;;;;1.30;1.30;;;;;;;;;;5034335;28;20060;-64
2024/03/28 03:22:48;;;;;;;2.45;1.55;;;;;;;;;;5038774;28;20029;-64
2024/03/28 03:25:24;;;;;;;1.98;1.30;;;;;;;;;;5039201;28;20112;-64
2024/03/28 03:36:05;;;;;;;3.50;1.55;;;;;;;;;;5031864;28;20192;-64
2024/03/28 03:38:32;;;;;;;1.20;1.20;;;;;;;;;;5040993;28;20045;-64
2024/03/28 03:41:00;;;;;;;1.20;1.20;;;;;;;;;;5030309;28;20026;-64
2024/03/28 03:43:26;;;;;;;1.20;1.20;;;;;;;;;;5038269;28;20033;-64
2024/03/28 03:45:52;;;;;;;1.50;1.40;;;;;;;;;;5038896;28;20557;-64
2024/03/28 03:48:18;;;;;;;1.42;1.42;;;;;;;;;;5038085;28;20036;-64
2024/03/28 03:50:44;;;;;;;4.03;1.25;;;;;;;;;;5039238;28;20037;-64
2024/03/28 03:53:11;;;;;;;1.10;1.10;;;;;;;;;;5036702;28;20029;-63
2024/03/28 03:55:37;;;;;;;1.20;1.20;;;;;;;;;;5028765;28;20064;-64
2024/03/28 03:58:03;;;;;;;1.08;1.08;;;;;;;;;;5040260;28;20427;-64
2024/03/28 04:00:29;;;;;;;2.83;1.25;;;;;;;;;;5040950;28;20029;-64
2024/03/28 04:02:56;;;;;;;1.00;1.00;;;;;;;;;;5032983;28;20049;-63
2024/03/28 04:05:22;;;;;;;2.10;1.35;;;;;;;;;;5039793;28;20614;-64
2024/03/28 04:07:48;;;;;;;1.00;1.00;;;;;;;;;;5041364;28;20024;-64
2024/03/28 04:10:14;;;;;;;1.08;1.08;;;;;;;;;;5043137;28;20025;-64
2024/03/28 04:12:40;;;;;;;1.65;1.10;;;;;;;;;;5033904;28;20029;-64
2024/03/28 04:15:07;;;;;;;1.23;1.23;;;;;;;;;;5032598;28;20127;-64
2024/03/28 04:17:36;;;;;;;1.42;1.42;;;;;;;;;;5034737;28;20037;-64
2024/03/28 04:20:11;;;;;;;1.13;1.13;;;;;;;;;;5034290;28;20056;-63
2024/03/28 04:22:37;;;;;;;1.20;1.20;;;;;;;;;;5035840;28;20076;-63
2024/03/28 04:25:03;;;;;;;1.58;1.48;;;;;;;;;;5040833;28;20025;-63
2024/03/28 04:27:29;;;;;;;1.20;1.20;;;;;;;;;;5035734;28;20519;-64
2024/03/28 04:29:56;;;;;;;1.90;1.75;;;;;;;;;;5033874;28;20808;-64
2024/03/28 04:32:22;;;;;;;1.20;1.20;;;;;;;;;;5041364;28;20033;-63
2024/03/28 04:34:48;;;;;;;1.10;1.05;;;;;;;;;;5034077;28;20060;-63
2024/03/28 04:37:15;;;;;;;1.13;1.10;;;;;;;;;;5045586;28;20040;-63
2024/03/28 04:39:41;;;;;;;5.15;1.52;;;;;;;;;;5035606;28;20041;-63
2024/03/28 04:42:07;;;;;;;2.20;1.77;;;;;;;;;;5050673;28;20035;-67
2024/03/28 04:44:33;;;;;;;0.82;0.82;;;;;;;;;;5044023;28;20037;-67
2024/03/28 04:46:59;;;;;;;1.17;1.15;;;;;;;;;;5041224;28;20079;-67
2024/03/28 04:49:26;;;;;;;1.75;1.27;;;;;;;;;;5040749;28;20025;-68
2024/03/28 04:51:52;;;;;;;2.53;1.52;;;;;;;;;;5044397;28;20052;-68
2024/03/28 04:54:18;;;;;;;1.00;1.00;;;;;;;;;;5036201;28;20040;-67
2024/03/28 04:56:44;;;;;;;1.30;1.30;;;;;;;;;;5041688;28;20079;-68
2024/03/28 04:59:10;;;;;;;1.08;1.08;;;;;;;;;;5043332;28;20051;-68
2024/03/28 05:01:36;;;;;;;1.00;1.00;;;;;;;;;;5046715;28;20078;-68
2024/03/28 05:04:02;;;;;;;1.15;1.15;;;;;;;;;;5048217;28;20033;-68
2024/03/28 05:06:29;;;;;;;1.50;1.40;;;;;;;;;;5042990;28;20105;-67
2024/03/28 05:08:55;;;;;;;1.88;1.38;;;;;;;;;;5040615;28;20032;-67
2024/03/28 05:11:23;;;;;;;1.25;1.25;;;;;;;;;;5047027;28;20117;-67
2024/03/28 05:13:49;;;;;;;2.10;1.35;;;;;;;;;;5033826;28;20087;-67
2024/03/28 05:16:15;;;;;;;5.53;1.60;;;;;;;;;;5045830;28;20040;-68
2024/03/28 05:18:45;;;;;;;5.15;1.27;;;;;;;;;;5038264;28;20359;-68
2024/03/28 05:21:11;;;;;;;1.10;1.10;;;;;;;;;;5032522;28;20043;-67
2024/03/28 05:23:37;;;;;;;1.10;1.10;;;;;;;;;;5047472;28;20020;-68
2024/03/28 05:26:04;;;;;;;1.23;1.23;;;;;;;;;;5042263;28;20024;-68
2024/03/28 05:28:30;;;;;;;1.08;1.08;;;;;;;;;;5042799;28;20021;-67
2024/03/28 05:30:57;;;;;;;1.45;1.35;;;;;;;;;;5045935;28;20086;-67
2024/03/28 05:33:23;;;;;;;1.00;1.00;;;;;;;;;;5038635;28;20354;-68
2024/03/28 05:35:49;;;;;;;10.32;1.63;;;;;;;;;;5044608;28;20033;-67
2024/03/28 05:38:15;;;;;;;1.05;1.05;;;;;;;;;;5041271;28;20077;-68
2024/03/28 05:40:41;;;;;;;1.00;1.00;;;;;;;;;;5043610;28;20032;-69
2024/03/28 05:43:07;;;;;;;1.50;1.50;;;;;;;;;;5034083;28;20519;-67
2024/03/28 05:45:33;;;;;;;1.20;1.20;;;;;;;;;;5046706;28;20029;-67
2024/03/28 05:48:00;;;;;;;1.80;1.70;;;;;;;;;;5043336;28;20715;-68
2024/03/28 05:50:26;;;;;;;2.42;1.60;;;;;;;;;;5035376;28;20561;-68
2024/03/28 05:52:52;;;;;;;1.70;1.60;;;;;;;;;;5037263;28;20162;-68
2024/03/28 05:55:18;;;;;;;2.53;2.03;;;;;;;;;;5045841;28;20033;-68
2024/03/28 05:57:44;;;;;;;5.00;1.58;;;;;;;;;;5043652;28;20418;-68
2024/03/28 06:00:11;;;;;;;1.20;1.20;;;;;;;;;;5044698;28;20041;-67
2024/03/28 06:02:37;;;;;;;2.20;1.85;;;;;;;;;;5044116;28;20048;-68
2024/03/28 06:05:03;;;;;;;1.17;1.17;;;;;;;;;;5046211;28;20059;-67
2024/03/28 06:07:29;;;;;;;1.30;1.30;;;;;;;;;;5039505;28;20025;-67
2024/03/28 06:09:55;;;;;;;2.00;1.20;;;;;;;;;;5043147;28;20036;-67
2024/03/28 06:12:21;;;;;;;1.88;1.63;;;;;;;;;;5035144;28;20424;-67
2024/03/28 06:14:48;;;;;;;1.30;1.30;;;;;;;;;;5046496;28;20114;-68
2024/03/28 06:17:14;;;;;;;1.15;1.15;;;;;;;;;;5042200;28;20030;-67
2024/03/28 06:19:40;;;;;;;1.00;1.00;;;;;;;;;;5041280;28;20025;-67
2024/03/28 06:22:06;;;;;;;1.35;1.30;;;;;;;;;;5041389;28;20037;-68
2024/03/28 06:24:32;;;;;;;2.03;1.60;;;;;;;;;;5029964;28;20032;-67
2024/03/28 06:26:58;;;;;;;1.50;1.40;;;;;;;;;;5042423;28;20029;-67
2024/03/28 06:29:24;;;;;;;1.10;1.10;;;;;;;;;;5040408;28;20056;-68
2024/03/28 06:31:52;;;;;;;9.52;1.40;;;;;;;;;;5021268;28;20036;-68
2024/03/28 06:34:18;;;;;;;1.38;1.30;;;;;;;;;;5037050;28;20021;-67
2024/03/28 06:36:44;;;;;;;1.45;1.45;;;;;;;;;;5037001;28;20032;-67
2024/03/28 06:39:10;;;;;;;1.23;1.23;;;;;;;;;;5044262;28;20052;-68
2024/03/28 06:41:37;;;;;;;1.67;1.58;;;;;;;;;;5047065;28;20390;-67
2024/03/28 06:44:06;;;;;;;1.30;1.30;;;;;;;;;;5038304;28;20030;-68
2024/03/28 06:46:32;;;;;;;1.20;1.20;;;;;;;;;;5039418;28;20108;-68
2024/03/28 06:48:58;;;;;;;1.60;1.50;;;;;;;;;;5028219;28;20028;-67
2024/03/28 06:51:24;;;;;;;1.75;1.25;;;;;;;;;;5037036;28;20048;-68
2024/03/28 06:53:50;;;;;;;1.77;1.67;;;;;;;;;;5032913;28;20036;-67
2024/03/28 06:56:16;;;;;;;1.42;1.42;;;;;;;;;;5039418;28;20025;-67
2024/03/28 06:58:43;;;;;;;1.40;1.40;;;;;;;;;;5038371;28;20053;-68
2024/03/28 07:01:09;;;;;;;2.38;1.35;;;;;;;;;;5039081;28;20025;-67
2024/03/28 07:03:35;;;;;;;1.23;1.23;;;;;;;;;;5033482;28;20397;-68
2024/03/28 07:06:01;;;;;;;1.60;1.50;;;;;;;;;;5032752;28;20386;-68
2024/03/28 07:08:28;;;;;;;1.73;1.60;;;;;;;;;;5032572;28;20086;-67
2024/03/28 07:10:55;;;;;;;1.40;1.30;;;;;;;;;;5038894;28;20022;-67
2024/03/28 07:13:21;;;;;;;1.38;1.30;;;;;;;;;;5027518;28;20030;-67
2024/03/28 07:15:47;;;;;;;1.55;1.45;;;;;;;;;;5034992;28;20065;-68
2024/03/28 07:18:13;;;;;;;1.50;1.40;;;;;;;;;;5035860;28;20036;-68
2024/03/28 07:20:39;;;;;;;1.52;1.42;;;;;;;;;;5041186;28;20172;-68
2024/03/28 07:23:06;;;;;;;2.13;1.75;;;;;;;;;;5044781;28;20155;-67
2024/03/28 07:25:32;;;;;;;1.42;1.33;;;;;;;;;;5038180;28;20505;-68
2024/03/28 07:27:59;;;;;;;1.98;1.88;;;;;;;;;;5034479;28;20081;-68
2024/03/28 07:30:25;;;;;;;3.70;1.55;;;;;;;;;;5023577;28;20167;-68
2024/03/28 07:32:51;;;;;;;3.47;1.80;;;;;;;;;;5028408;28;20029;-68
2024/03/28 07:35:17;;;;;;;1.55;1.55;;;;;;;;;;5028982;28;20105;-68
2024/03/28 07:37:43;;;;;;;2.45;2.00;;;;;;;;;;5038938;28;20057;-67
2024/03/28 07:40:10;;;;;;;1.52;1.42;;;;;;;;;;5032918;28;20029;-67
2024/03/28 07:42:36;;;;;;;1.20;1.20;;;;;;;;;;5029330;28;20026;-68
2024/03/28 07:45:03;;;;;;;3.20;1.90;;;;;;;;;;5039130;28;20072;-68
2024/03/28 07:47:29;;;;;;;3.45;1.80;;;;;;;;;;5027894;28;20609;-68
2024/03/28 07:49:55;;;;;;;5.88;1.70;;;;;;;;;;5040539;28;20151;-68
2024/03/28 07:52:21;;;;;;;1.90;1.80;;;;;;;;;;5036677;28;20021;-68
2024/03/28 07:54:48;;;;;;;3.55;2.20;;;;;;;;;;5040931;28;20024;-66
2024/03/28 07:57:15;;;;;;;2.30;2.10;;;;;;;;;;5038364;28;20048;-67
2024/03/28 07:59:41;;;;;;;1.45;1.38;;;;;;;;;;5042994;28;20056;-68
2024/03/28 08:02:07;;;;;;;2.10;1.30;;;;;;;;;;5037771;28;20034;-68
2024/03/28 08:04:33;;;;;;;1.60;1.50;;;;;;;;;;5042688;28;20030;-68
2024/03/28 08:06:59;;;;;;;5.25;1.38;;;;;;;;;;5038685;28;20017;-67
2024/03/28 08:09:26;;;;;;;2.50;1.63;;;;;;;;;;5028447;28;20396;-67
2024/03/28 08:11:52;;;;;;;1.25;1.25;;;;;;;;;;5035315;28;20095;-68
2024/03/28 08:14:18;;;;;;;1.77;1.58;;;;;;;;;;5037963;28;20025;-68
2024/03/28 08:16:45;;;;;;;1.60;1.50;;;;;;;;;;5042298;28;20507;-67
2024/03/28 08:19:11;;;;;;;1.80;1.70;;;;;;;;;;5045326;28;20028;-67
2024/03/28 08:21:37;;;;;;;1.25;1.25;;;;;;;;;;5045191;28;20032;-68
2024/03/28 08:24:04;;;;;;;1.70;1.60;;;;;;;;;;5038049;28;20025;-68
2024/03/28 08:26:31;;;;;;;1.60;1.50;;;;;;;;;;5037797;28;20522;-67
2024/03/28 08:28:57;;;;;;;1.40;1.40;;;;;;;;;;5043185;28;20073;-68
2024/03/28 08:31:24;;;;;;;1.80;1.70;;;;;;;;;;5042229;28;20477;-68
2024/03/28 08:33:50;;;;;;;1.33;1.33;;;;;;;;;;5041606;28;20017;-67
2024/03/28 08:36:17;;;;;;;1.95;1.75;;;;;;;;;;5042408;28;20025;-68
2024/03/28 08:38:43;;;;;;;1.92;1.83;;;;;;;;;;5038945;28;20033;-68
2024/03/28 08:41:10;;;;;;;1.42;1.40;;;;;;;;;;5036066;28;20386;-67
2024/03/28 08:43:36;;;;;;;1.58;1.58;;;;;;;;;;5051101;28;20032;-68
2024/03/28 08:46:03;;;;;;;1.60;1.50;;;;;;;;;;5041848;28;20393;-68
2024/03/28 08:48:29;;;;;;;4.35;1.88;;;;;;;;;;5035840;28;20075;-68
2024/03/28 08:50:58;;;;;;;1.63;1.52;;;;;;;;;;5041524;28;20036;-68
2024/03/28 08:53:25;;;;;;;1.98;1.80;;;;;;;;;;5043962;28;20020;-68
2024/03/28 08:55:52;;;;;;;1.92;1.80;;;;;;;;;;5044043;28;20033;-68
2024/03/28 08:58:18;;;;;;;1.80;1.70;;;;;;;;;;5042605;28;20017;-68
2024/03/28 09:00:45;;;;;;;2.05;1.80;;;;;;;;;;5041444;28;20385;-68
2024/03/28 09:03:11;;;;;;;2.05;1.83;;;;;;;;;;5057954;28;20029;-67
2024/03/28 09:05:38;;;;;;;2.53;2.00;;;;;;;;;;5042139;28;20046;-68
2024/03/28 09:08:04;;;;;;;2.15;2.00;;;;;;;;;;5047672;28;20029;-69
2024/03/28 09:10:30;;;;;;;1.90;1.80;;;;;;;;;;5042942;28;20029;-69
2024/03/28 09:12:58;;;;;;;2.22;1.92;;;;;;;;;;5042554;28;20037;-68
2024/03/28 09:15:25;;;;;;;2.10;1.95;;;;;;;;;;5041999;28;20079;-68
2024/03/28 09:17:51;;;;;;;2.78;1.90;;;;;;;;;;5050967;28;20063;-68
2024/03/28 09:20:19;;;;;;;1.90;1.80;;;;;;;;;;5043993;28;20146;-68
2024/03/28 09:22:45;;;;;;;2.63;2.25;;;;;;;;;;5041922;28;20571;-68
2024/03/28 09:25:12;;;;;;;2.22;1.90;;;;;;;;;;5041969;28;20549;-68
2024/03/28 09:27:38;;;;;;;4.53;2.30;;;;;;;;;;5039765;28;20029;-68
2024/03/28 09:30:08;;;;;;;3.30;2.95;;;;;;;;;;5036566;28;20491;-68
2024/03/28 09:32:34;;;;;;;2.47;2.00;;;;;;;;;;5042253;28;20029;-68
2024/03/28 09:35:00;;;;;;;1.80;1.70;;;;;;;;;;5037756;28;20052;-68
2024/03/28 09:37:27;;;;;;;1.45;1.35;;;;;;;;;;5043313;28;20035;-68
2024/03/28 09:39:53;;;;;;;2.90;2.17;;;;;;;;;;5039256;28;20128;-68
2024/03/28 09:42:20;;;;;;;1.85;1.75;;;;;;;;;;5035729;28;20033;-69
2024/03/28 09:44:52;;;;;;;2.10;1.90;;;;;;;;;;5038724;28;20043;-69
2024/03/28 09:47:20;;;;;;;2.60;2.13;;;;;;;;;;5033827;28;20108;-69
2024/03/28 09:49:47;;;;;;;2.08;1.88;;;;;;;;;;5043103;28;20088;-68
2024/03/28 09:52:14;;;;;;;3.97;1.95;;;;;;;;;;5039009;28;20028;-68
2024/03/28 09:54:44;;;;;;;3.85;1.65;;;;;;;;;;5037939;28;20024;-68
2024/03/28 09:57:10;;;;;;;2.30;2.10;;;;;;;;;;5035201;28;20037;-70
2024/03/28 09:59:36;;;;;;;6.78;3.28;;;;;;;;;;5040305;28;20037;-68
2024/03/28 10:02:15;;;;;;;2.53;2.08;;;;;;;;;;5037779;28;20036;-67
2024/03/28 10:04:44;;;;;;;2.00;1.90;;;;;;;;;;5035698;28;20033;-68
2024/03/28 10:07:12;;;;;;;2.47;2.28;;;;;;;;;;5039169;28;20113;-68
2024/03/28 10:09:39;;;;;;;2.25;2.05;;;;;;;;;;5043387;28;20112;-68
2024/03/28 10:12:12;;;;;;;2.15;1.80;;;;;;;;;;5038423;28;20409;-68
2024/03/28 10:14:39;;;;;;;2.22;1.90;;;;;;;;;;5034241;28;20108;-69
2024/03/28 10:17:09;;;;;;;1.70;1.60;;;;;;;;;;5041162;28;20083;-68
2024/03/28 10:19:39;;;;;;;1.45;1.40;;;;;;;;;;5039774;28;20028;-69
2024/03/28 10:22:06;;;;;;;1.80;1.70;;;;;;;;;;5033844;28;20025;-68
2024/03/28 10:24:33;;;;;;;3.63;1.70;;;;;;;;;;5042175;28;20456;-69
2024/03/28 10:27:00;;;;;;;2.53;1.58;;;;;;;;;;5033229;28;20107;-68
2024/03/28 10:29:31;;;;;;;5.13;2.90;;;;;;;;;;5035831;28;20455;-68
2024/03/28 10:32:06;;;;;;;1.58;1.40;;;;;;;;;;5037190;28;20029;-69
2024/03/28 10:34:33;;;;;;;1.55;1.45;;;;;;;;;;5041149;28;20033;-69
2024/03/28 10:37:05;;;;;;;18.23;2.88;;;;;;;;;;5038662;28;20029;-68
2024/03/28 10:39:32;;;;;;;1.58;1.50;;;;;;;;;;5054888;28;20160;-68
2024/03/28 10:41:59;;;;;;;1.60;1.50;;;;;;;;;;5032836;28;20513;-68
2024/03/28 10:44:27;;;;;;;1.30;1.30;;;;;;;;;;5036917;28;20565;-67
2024/03/28 10:46:53;;;;;;;3.05;1.60;;;;;;;;;;5041806;28;20037;-68
2024/03/28 10:49:22;;;;;;;1.98;1.77;;;;;;;;;;5034120;28;20438;-68
2024/03/28 10:51:51;;;;;;;21.92;9.05;;;;;;;;;;5035158;28;20098;-68
2024/03/28 10:54:26;;;;;;;4.75;3.38;;;;;;;;;;5042159;28;20086;-68
2024/03/28 10:56:54;;;;;;;2.20;2.00;;;;;;;;;;5046865;28;20028;-68
2024/03/28 10:59:25;;;;;;;3.88;2.25;;;;;;;;;;5032388;28;20790;-68
2024/03/28 11:01:52;;;;;;;3.60;2.25;;;;;;;;;;5040018;28;20028;-69
2024/03/28 11:04:19;;;;;;;2.72;2.40;;;;;;;;;;5039890;28;20114;-68
2024/03/28 11:06:46;;;;;;;4.47;2.13;;;;;;;;;;5041078;28;20039;-68
2024/03/28 11:09:13;;;;;;;1.60;1.50;;;;;;;;;;5036498;28;20021;-68
2024/03/28 11:11:40;;;;;;;1.60;1.45;;;;;;;;;;5040509;28;20032;-69
2024/03/28 11:14:06;;;;;;;1.50;1.40;;;;;;;;;;5032994;28;20029;-68
2024/03/28 11:16:34;;;;;;;2.50;1.50;;;;;;;;;;5042211;28;20602;-69
2024/03/28 11:19:03;;;;;;;1.52;1.42;;;;;;;;;;5040782;28;20036;-67
2024/03/28 11:21:32;;;;;;;2.58;2.03;;;;;;;;;;5043084;28;20028;-68
2024/03/28 11:23:58;;;;;;;1.45;1.35;;;;;;;;;;5040868;28;20024;-68
2024/03/28 11:26:25;;;;;;;1.52;1.48;;;;;;;;;;5043631;28;20027;-68
2024/03/28 11:29:00;;;;;;;1.67;1.58;;;;;;;;;;5039989;28;20025;-68
2024/03/28 11:31:27;;;;;;;4.30;1.85;;;;;;;;;;5040586;28;20122;-69
2024/03/28 11:34:03;;;;;;;1.75;1.65;;;;;;;;;;5039537;28;20109;-68
2024/03/28 11:36:33;;;;;;;1.60;1.50;;;;;;;;;;5044962;28;20388;-69
2024/03/28 11:38:59;;;;;;;1.63;1.52;;;;;;;;;;5056010;28;20034;-69
2024/03/28 11:41:26;;;;;;;1.45;1.35;;;;;;;;;;5042368;28;20024;-69
2024/03/28 11:43:53;;;;;;;1.50;1.40;;;;;;;;;;5048099;28;20452;-69
2024/03/28 11:46:22;;;;;;;1.70;1.60;;;;;;;;;;5039703;28;20025;-69
2024/03/28 11:48:54;;;;;;;7.45;1.90;;;;;;;;;;5035612;28;20029;-69
2024/03/28 11:51:20;;;;;;;1.65;1.55;;;;;;;;;;5041427;28;20373;-68
2024/03/28 11:53:47;;;;;;;1.48;1.38;;;;;;;;;;5041343;28;20056;-68
2024/03/28 11:56:23;;;;;;;1.30;1.30;;;;;;;;;;5047693;28;20412;-69
2024/03/28 11:58:49;;;;;;;1.48;1.40;;;;;;;;;;5046125;28;20436;-69
2024/03/28 12:01:18;;;;;;;2.08;1.60;;;;;;;;;;5049358;28;20024;-70
2024/03/28 12:03:45;;;;;;;17.00;6.10;;;;;;;;;;5046151;28;20102;-68
2024/03/28 12:06:11;;;;;;;6.15;2.58;;;;;;;;;;5047780;28;20051;-69
2024/03/28 12:08:44;;;;;;;2.75;2.00;;;;;;;;;;5039966;28;20041;-68
2024/03/28 12:11:10;;;;;;;1.70;1.60;;;;;;;;;;5037205;28;20032;-69
2024/03/28 12:13:36;;;;;;;1.50;1.40;;;;;;;;;;5045731;28;20091;-69
2024/03/28 12:16:03;;;;;;;1.40;1.30;;;;;;;;;;5038071;28;20039;-69
2024/03/28 12:18:41;;;;;;;2.10;1.70;;;;;;;;;;5039862;28;20037;-69
2024/03/28 12:21:09;;;;;;;2.17;1.60;;;;;;;;;;5044390;28;20021;-68
2024/03/28 12:23:38;;;;;;;1.88;1.70;;;;;;;;;;5044767;28;20026;-69
2024/03/28 12:26:04;;;;;;;2.42;2.22;;;;;;;;;;5046243;28;20033;-69
2024/03/28 12:28:30;;;;;;;1.88;1.73;;;;;;;;;;5046275;28;20039;-69
2024/03/28 12:30:57;;;;;;;1.73;1.63;;;;;;;;;;5045187;28;20104;-69
2024/03/28 12:33:24;;;;;;;1.90;1.75;;;;;;;;;;5032324;28;20028;-69
2024/03/28 12:35:54;;;;;;;1.70;1.60;;;;;;;;;;5042340;28;20029;-70
2024/03/28 12:38:20;;;;;;;1.70;1.60;;;;;;;;;;5040939;28;20094;-70
2024/03/28 12:40:50;;;;;;;1.85;1.73;;;;;;;;;;5045244;28;20457;-70
2024/03/28 12:43:17;;;;;;;2.05;1.40;;;;;;;;;;5044063;28;20040;-69
2024/03/28 12:45:43;;;;;;;1.33;1.33;;;;;;;;;;5042464;28;20078;-69
2024/03/28 12:48:10;;;;;;;2.15;1.50;;;;;;;;;;5044591;28;20435;-70
2024/03/28 12:50:45;;;;;;;1.50;1.40;;;;;;;;;;5044061;28;20492;-71
2024/03/28 12:53:11;;;;;;;;;;;;;;;;;;5031980;28;20465;-71
2024/03/28 12:55:37;;;;;;;1.58;1.48;;;;;;;;;;5042749;28;19958;-70
2024/03/28 12:58:03;;;;;;;1.80;1.52;;;;;;;;;;5044477;28;20021;-71
2024/03/28 13:00:29;;;;;;;1.95;1.55;;;;;;;;;;5041118;28;20111;-71
2024/03/28 13:02:56;;;;;;;2.92;1.60;;;;;;;;;;5041696;28;20021;-70
2024/03/28 13:05:23;;;;;;;2.40;1.48;;;;;;;;;;5035918;28;20186;-71
2024/03/28 13:07:50;;;;;;;1.30;1.30;;;;;;;;;;5044044;28;20104;-71
2024/03/28 13:10:17;;;;;;;1.60;1.50;;;;;;;;;;5040549;28;20134;-71
2024/03/28 13:12:43;;;;;;;1.50;1.40;;;;;;;;;;5029625;28;20053;-71
2024/03/28 13:15:10;;;;;;;1.50;1.40;;;;;;;;;;5036955;28;20041;-69
2024/03/28 13:17:36;;;;;;;2.05;1.58;;;;;;;;;;5033762;28;20084;-69
2024/03/28 13:20:05;;;;;;;1.80;1.30;;;;;;;;;;5039240;28;20037;-69
2024/03/28 13:22:31;;;;;;;2.03;1.88;;;;;;;;;;5040926;28;20413;-69
2024/03/28 13:24:57;;;;;;;1.85;1.30;;;;;;;;;;5054921;28;20033;-69
2024/03/28 13:27:23;;;;;;;1.92;1.75;;;;;;;;;;5039626;28;20045;-69
2024/03/28 13:29:50;;;;;;;1.52;1.40;;;;;;;;;;5039791;28;21301;-69
2024/03/28 13:32:16;;;;;;;2.67;1.20;;;;;;;;;;5046560;28;20120;-69
2024/03/28 13:34:42;;;;;;;1.42;1.42;;;;;;;;;;5036547;28;20021;-70
2024/03/28 13:37:09;;;;;;;2.13;1.20;;;;;;;;;;5042377;28;20464;-69
2024/03/28 13:39:39;;;;;;;2.15;1.70;;;;;;;;;;5037895;28;20048;-69
2024/03/28 13:42:05;;;;;;;1.88;1.52;;;;;;;;;;5039979;28;20033;-69
2024/03/28 13:44:31;;;;;;;2.63;1.40;;;;;;;;;;5032853;28;20119;-70
2024/03/28 13:46:58;;;;;;;1.25;1.23;;;;;;;;;;5040577;28;20481;-69
2024/03/28 13:49:31;;;;;;;1.40;1.30;;;;;;;;;;5040234;28;20029;-70
2024/03/28 13:52:00;;;;;;;3.88;1.80;;;;;;;;;;5035457;28;20032;-70
2024/03/28 13:54:26;;;;;;;3.10;1.70;;;;;;;;;;5036121;28;20331;-68
2024/03/28 13:56:53;;;;;;;4.93;2.10;;;;;;;;;;5041147;28;20104;-68
2024/03/28 13:59:19;;;;;;;3.03;1.80;;;;;;;;;;5036748;28;20171;-68
2024/03/28 14:01:46;;;;;;;3.17;2.10;;;;;;;;;;5039828;28;20132;-67
2024/03/28 14:04:13;;;;;;;8.27;4.82;;;;;;;;;;5038634;28;20238;-68
2024/03/28 14:06:39;;;;;;;3.40;2.22;;;;;;;;;;5039285;28;20060;-68
2024/03/28 14:09:07;;;;;;;4.95;2.58;;;;;;;;;;5041159;28;20032;-68
2024/03/28 14:11:33;;;;;;;2.13;1.65;;;;;;;;;;5033789;28;20617;-68
2024/03/28 14:13:59;;;;;;;3.90;2.00;;;;;;;;;;5041040;28;20017;-68
2024/03/28 14:16:26;;;;;;;3.03;1.60;;;;;;;;;;5038098;28;20573;-69
2024/03/28 14:18:52;;;;;;;4.28;2.10;;;;;;;;;;5034577;28;20070;-69
2024/03/28 14:21:18;;;;;;;1.50;1.40;;;;;;;;;;5034551;28;20090;-68
2024/03/28 14:23:44;;;;;;;1.75;1.60;;;;;;;;;;5042536;28;20040;-68
2024/03/28 14:26:10;;;;;;;2.40;1.50;;;;;;;;;;5032931;28;20032;-68
2024/03/28 14:28:37;;;;;;;24.52;11.23;;;;;;;;;;5043208;28;20027;-68
2024/03/28 14:31:07;;;;;;;23.17;11.95;;;;;;;;;;5034572;28;20021;-68
2024/03/28 14:33:33;;;;;;;14.98;6.70;;;;;;;;;;5041751;28;20024;-68
2024/03/28 14:36:00;;;;;;;2.05;1.92;;;;;;;;;;5041914;28;20028;-68
2024/03/28 14:38:26;;;;;;;2.50;2.17;;;;;;;;;;5033458;28;20454;-68
2024/03/28 14:40:52;;;;;;;2.70;2.10;;;;;;;;;;5035424;28;20098;-68
2024/03/28 14:43:18;;;;;;;3.80;2.50;;;;;;;;;;5040691;28;20080;-68
2024/03/28 14:45:44;;;;;;;3.53;2.42;;;;;;;;;;5045059;28;20650;-68
2024/03/28 14:48:11;;;;;;;2.55;1.85;;;;;;;;;;5031017;28;20492;-68
2024/03/28 14:50:37;;;;;;;4.38;2.15;;;;;;;;;;5037389;28;20390;-69